Time;durP1;ratioP1;P1;durP2;ratioP2;P2;SDS_P1;SDS_P2;PMS_P1;PMS_P2;Temp;Humidity;BMP_temperature;BMP_pressure;BME280_temperature;BME280_humidity;BME280_pressure;Samples;Min_cycle;Max_cycle;Signal;HPM_P1;HPM_P2
2023/11/18 00:00:18;;;;;;;0.30;0.30;;;;;;;5.56;59.49;99687.94;5299444;27;20071;-85
2023/11/18 00:02:44;;;;;;;2.28;1.45;;;;;;;5.58;59.49;99693.09;5299656;27;20077;-85
2023/11/18 00:05:10;;;;;;;0.00;0.00;;;;;;;5.52;59.48;99688.87;5281423;27;20057;-86
2023/11/18 00:07:36;;;;;;;0.55;0.30;;;;;;;5.56;59.49;99690.53;5299456;27;20061;-85
2023/11/18 00:10:01;;;;;;;0.37;0.37;;;;;;;5.58;59.48;99698.25;5281128;27;20342;-85
2023/11/18 00:12:27;;;;;;;0.03;0.03;;;;;;;5.60;59.48;99707.69;5299543;27;20055;-86
2023/11/18 00:14:52;;;;;;;0.00;0.00;;;;;;;5.55;59.49;99697.41;5299374;27;20407;-86
2023/11/18 00:17:20;;;;;;;0.13;0.13;;;;;;;5.40;59.48;99699.31;5300055;27;20069;-86
2023/11/18 00:19:45;;;;;;;0.00;0.00;;;;;;;5.48;59.48;99700.97;5300340;27;20103;-86
2023/11/18 00:22:11;;;;;;;0.08;0.08;;;;;;;5.43;59.48;99710.47;5280743;27;37018;-86
2023/11/18 00:24:37;;;;;;;0.00;0.00;;;;;;;5.34;59.47;99709.72;5300203;27;20057;-86
2023/11/18 00:27:05;;;;;;;0.20;0.20;;;;;;;5.28;59.46;99712.37;5300080;27;20091;-86
2023/11/18 00:29:35;;;;;;;0.25;0.17;;;;;;;5.45;59.47;99695.00;5300653;27;20064;-86
2023/11/18 00:32:01;;;;;;;0.00;0.00;;;;;;;5.54;59.47;99705.19;5316752;27;20120;-85
2023/11/18 00:34:26;;;;;;;0.60;0.20;;;;;;;5.47;59.48;99708.72;5300181;27;20057;-85
2023/11/18 00:36:52;;;;;;;2.08;0.55;;;;;;;5.37;59.47;99712.28;5318859;27;20147;-85
2023/11/18 00:39:17;;;;;;;0.00;0.00;;;;;;;5.41;59.48;99703.63;5299949;27;20087;-86
2023/11/18 00:41:42;;;;;;;0.00;0.00;;;;;;;5.35;59.47;99708.84;5299876;27;20087;-86
2023/11/18 00:44:08;;;;;;;0.00;0.00;;;;;;;5.29;59.47;99694.31;5317975;27;20399;-85
2023/11/18 00:46:35;;;;;;;0.00;0.00;;;;;;;5.25;59.47;99700.38;5318316;27;20102;-85
2023/11/18 00:49:01;;;;;;;0.10;0.10;;;;;;;5.17;59.47;99695.28;5300148;27;20062;-85
2023/11/18 00:51:27;;;;;;;0.03;0.03;;;;;;;5.08;59.45;99700.56;5318352;27;20096;-86
2023/11/18 00:53:54;;;;;;;0.43;0.43;;;;;;;4.97;59.45;99701.53;5300324;27;20052;-87
2023/11/18 00:56:21;;;;;;;0.00;0.00;;;;;;;5.11;59.46;99704.81;5319052;27;20433;-85
2023/11/18 00:58:47;;;;;;;0.70;0.65;;;;;;;5.09;59.46;99697.09;5300156;27;20319;-85
2023/11/18 01:01:13;;;;;;;0.05;0.05;;;;;;;5.06;59.46;99709.19;5300277;27;20139;-86
2023/11/18 01:03:38;;;;;;;0.65;0.45;;;;;;;5.03;59.46;99704.91;5300177;27;20436;-85
2023/11/18 01:06:06;;;;;;;0.03;0.03;;;;;;;5.07;59.46;99704.00;5300079;27;20116;-86
2023/11/18 01:08:31;;;;;;;0.00;0.00;;;;;;;4.92;59.45;99709.31;5300637;27;20057;-86
2023/11/18 01:10:57;;;;;;;0.00;0.00;;;;;;;4.88;59.46;99715.38;5299855;27;20097;-85
2023/11/18 01:13:22;;;;;;;0.62;0.62;;;;;;;4.93;59.45;99708.44;5317838;27;28005;-86
2023/11/18 01:15:48;;;;;;;0.10;0.10;;;;;;;4.91;59.45;99718.78;5299535;27;23429;-85
2023/11/18 01:18:13;;;;;;;0.00;0.00;;;;;;;4.91;59.45;99728.22;5300440;27;20792;-85
2023/11/18 01:20:39;;;;;;;0.22;0.22;;;;;;;4.81;59.45;99729.19;5318527;27;20048;-85
2023/11/18 01:23:04;;;;;;;3.40;0.52;;;;;;;4.86;59.44;99722.28;5317926;27;20060;-85
2023/11/18 01:25:30;;;;;;;0.00;0.00;;;;;;;4.85;59.44;99725.72;5299179;27;28065;-84
2023/11/18 01:27:55;;;;;;;0.00;0.00;;;;;;;4.77;59.44;99735.25;5317950;27;22769;-85
2023/11/18 01:30:20;;;;;;;0.00;0.00;;;;;;;4.87;59.45;99730.00;5317531;27;21810;-85
2023/11/18 01:32:46;;;;;;;0.25;0.25;;;;;;;4.84;59.44;99726.59;5299216;27;23034;-84
2023/11/18 01:35:12;;;;;;;0.15;0.10;;;;;;;4.93;59.44;99729.06;5299723;27;20111;-84
2023/11/18 01:37:38;;;;;;;0.00;0.00;;;;;;;4.96;59.45;99723.88;5300024;27;20086;-85
2023/11/18 01:40:07;;;;;;;0.15;0.15;;;;;;;4.78;59.44;99718.91;5300244;27;20410;-86
2023/11/18 01:42:33;;;;;;;0.32;0.28;;;;;;;4.83;59.44;99725.75;5299916;27;20462;-86
2023/11/18 01:45:03;;;;;;;1.75;0.95;;;;;;;4.94;59.46;99723.03;5299889;27;20125;-85
2023/11/18 01:47:29;;;;;;;0.40;0.22;;;;;;;4.98;59.45;99719.59;5299802;27;20075;-86
2023/11/18 01:49:59;;;;;;;0.00;0.00;;;;;;;4.99;59.45;99710.13;5299777;27;20049;-85
2023/11/18 01:52:26;;;;;;;0.00;0.00;;;;;;;4.85;59.44;99730.88;5299490;27;20053;-85
2023/11/18 01:54:54;;;;;;;0.20;0.20;;;;;;;4.90;59.45;99736.84;5299893;27;20065;-86
2023/11/18 01:57:20;;;;;;;0.00;0.00;;;;;;;4.93;59.45;99734.22;5318567;27;20110;-86
2023/11/18 01:59:45;;;;;;;0.05;0.05;;;;;;;4.97;59.45;99737.62;5299917;27;20057;-84
2023/11/18 02:02:11;;;;;;;0.00;0.00;;;;;;;4.98;59.45;99729.91;5317617;27;30199;-86
2023/11/18 02:04:36;;;;;;;0.00;0.00;;;;;;;5.07;59.45;99740.13;5299605;27;20072;-85
2023/11/18 02:07:04;;;;;;;0.15;0.15;;;;;;;5.04;59.46;99739.31;5299714;27;20076;-85
2023/11/18 02:09:30;;;;;;;0.00;0.00;;;;;;;4.93;59.44;99739.38;5317764;27;20045;-85
2023/11/18 02:12:16;;;;;;;0.52;0.52;;;;;;;5.02;59.46;99743.63;5299722;27;20065;-85
2023/11/18 02:14:41;;;;;;;0.20;0.20;;;;;;;4.98;59.45;99741.94;5300127;27;20073;-85
2023/11/18 02:17:09;;;;;;;0.08;0.08;;;;;;;5.09;59.46;99746.12;5317489;27;20157;-83
2023/11/18 02:19:34;;;;;;;0.55;0.55;;;;;;;5.06;59.45;99751.31;5299908;27;20106;-85
2023/11/18 02:22:00;;;;;;;0.00;0.00;;;;;;;5.03;59.45;99743.59;5317944;27;20075;-86
2023/11/18 02:24:30;;;;;;;0.08;0.08;;;;;;;5.04;59.46;99741.87;5299089;27;20068;-86
2023/11/18 02:26:59;;;;;;;0.22;0.22;;;;;;;5.00;59.45;99743.63;5299741;27;20117;-85
2023/11/18 02:29:25;;;;;;;0.00;0.00;;;;;;;5.01;59.45;99744.50;5281167;27;20057;-85
2023/11/18 02:31:53;;;;;;;0.03;0.03;;;;;;;5.02;59.46;99744.47;5281146;27;20419;-87
2023/11/18 02:34:23;;;;;;;0.05;0.05;;;;;;;5.00;59.45;99753.97;5281070;27;20061;-87
2023/11/18 02:36:48;;;;;;;0.00;0.00;;;;;;;5.12;59.46;99756.41;5281361;27;20061;-85
2023/11/18 02:39:21;;;;;;;0.70;0.65;;;;;;;5.12;59.46;99761.56;5299363;27;20073;-86
2023/11/18 02:41:47;;;;;;;0.00;0.00;;;;;;;4.93;59.44;99763.47;5299759;27;20068;-86
2023/11/18 02:44:17;;;;;;;0.32;0.32;;;;;;;5.03;59.45;99764.25;5300001;27;20061;-86
2023/11/18 02:46:43;;;;;;;0.25;0.25;;;;;;;4.98;59.45;99750.53;5317722;27;20064;-86
2023/11/18 02:49:09;;;;;;;1.67;1.50;;;;;;;5.06;59.46;99750.47;5318341;27;20048;-86
2023/11/18 02:51:39;;;;;;;1.37;0.70;;;;;;;5.09;59.46;99750.44;5299880;27;20057;-86
2023/11/18 02:54:06;;;;;;;0.00;0.00;;;;;;;4.87;59.45;99771.25;5299687;27;20065;-87
2023/11/18 02:56:31;;;;;;;0.00;0.00;;;;;;;5.02;59.44;99766.84;5300083;27;20120;-86
2023/11/18 02:58:57;;;;;;;0.00;0.00;;;;;;;5.04;59.45;99765.09;5317727;27;20318;-85
2023/11/18 03:01:25;;;;;;;0.10;0.10;;;;;;;5.07;59.46;99773.66;5299731;27;20098;-86
2023/11/18 03:03:50;;;;;;;0.25;0.25;;;;;;;5.11;59.46;99769.31;5299760;27;20061;-84
2023/11/18 03:06:15;;;;;;;0.00;0.00;;;;;;;5.06;59.46;99782.28;5299324;27;20079;-86
2023/11/18 03:08:41;;;;;;;0.05;0.05;;;;;;;5.08;59.46;99782.25;5298570;27;38070;-86
2023/11/18 03:11:08;;;;;;;1.45;1.35;;;;;;;5.12;59.46;99786.50;5299494;27;20053;-86
2023/11/18 03:13:34;;;;;;;0.10;0.10;;;;;;;5.06;59.46;99790.00;5317879;27;20719;-86
2023/11/18 03:16:00;;;;;;;0.10;0.10;;;;;;;5.09;59.46;99791.72;5299557;27;20057;-86
2023/11/18 03:18:25;;;;;;;0.10;0.10;;;;;;;5.16;59.46;99790.78;5317830;27;20049;-86
2023/11/18 03:20:51;;;;;;;0.00;0.00;;;;;;;5.10;59.46;99789.09;5318503;27;20074;-84
2023/11/18 03:23:16;;;;;;;0.20;0.20;;;;;;;5.22;59.46;99801.91;5318208;27;20054;-86
2023/11/18 03:25:42;;;;;;;0.00;0.00;;;;;;;5.27;59.47;99796.69;5317119;27;35123;-86
2023/11/18 03:28:08;;;;;;;0.00;0.00;;;;;;;5.21;59.46;99789.03;5299945;27;20112;-86
2023/11/18 03:30:35;;;;;;;0.00;0.00;;;;;;;5.28;59.46;99788.09;5317715;27;20056;-86
2023/11/18 03:33:00;;;;;;;0.00;0.00;;;;;;;5.26;59.47;99789.81;5317771;27;20411;-86
2023/11/18 03:35:26;;;;;;;0.00;0.00;;;;;;;5.12;59.46;99802.84;5318364;27;20107;-86
2023/11/18 03:37:51;;;;;;;0.70;0.70;;;;;;;5.21;59.46;99783.88;5318197;27;20084;-86
2023/11/18 03:40:17;;;;;;;0.20;0.20;;;;;;;5.20;59.47;99797.59;5318161;27;20418;-86
2023/11/18 03:42:42;;;;;;;0.70;0.37;;;;;;;5.18;59.46;99804.50;5298574;27;31293;-84
2023/11/18 03:45:09;;;;;;;0.00;0.00;;;;;;;5.24;59.46;99799.31;5299111;27;20391;-85
2023/11/18 03:47:34;;;;;;;0.00;0.00;;;;;;;5.29;59.47;99805.28;5299409;27;20059;-86
2023/11/18 03:50:00;;;;;;;0.95;0.77;;;;;;;5.35;59.47;99819.84;5299218;27;20063;-85
2023/11/18 03:52:26;;;;;;;4.18;1.45;;;;;;;5.36;59.47;99809.50;5317606;27;20781;-85
2023/11/18 03:54:53;;;;;;;0.00;0.00;;;;;;;5.38;59.47;99810.34;5317732;27;20118;-87
2023/11/18 03:57:18;;;;;;;0.15;0.15;;;;;;;5.38;59.47;99812.06;5299438;27;20065;-84
2023/11/18 03:59:43;;;;;;;0.30;0.30;;;;;;;5.23;59.46;99813.09;5317034;27;30536;-85
2023/11/18 04:02:11;;;;;;;0.90;0.85;;;;;;;5.30;59.46;99837.97;5316790;27;27191;-85
2023/11/18 04:04:39;;;;;;;0.47;0.47;;;;;;;5.37;59.47;99833.59;5298964;27;20167;-85
2023/11/18 04:07:04;;;;;;;0.10;0.10;;;;;;;5.42;59.48;99829.22;5280383;27;20205;-85
2023/11/18 04:09:31;;;;;;;0.70;0.52;;;;;;;5.39;59.48;99831.84;5316926;27;20056;-86
2023/11/18 04:11:58;;;;;;;0.00;0.00;;;;;;;5.25;59.47;99839.72;5298874;27;20081;-85
2023/11/18 04:14:23;;;;;;;1.05;1.00;;;;;;;5.19;59.46;99850.09;5298842;27;20206;-86
2023/11/18 04:16:50;;;;;;;0.03;0.03;;;;;;;5.23;59.46;99842.31;5299025;27;20081;-85
2023/11/18 04:19:16;;;;;;;0.00;0.00;;;;;;;5.32;59.47;99833.63;5297909;27;38015;-84
2023/11/18 04:21:41;;;;;;;0.30;0.30;;;;;;;5.41;59.48;99832.69;5316389;27;34020;-86
2023/11/18 04:24:07;;;;;;;1.12;1.02;;;;;;;5.49;59.48;99841.22;5317312;27;22591;-85
2023/11/18 04:26:32;;;;;;;0.00;0.00;;;;;;;5.34;59.47;99831.03;5318308;27;20057;-87
2023/11/18 04:28:58;;;;;;;0.20;0.20;;;;;;;5.42;59.47;99843.00;5318053;27;20041;-86
2023/11/18 04:31:23;;;;;;;0.20;0.20;;;;;;;5.34;59.47;99849.97;5314573;27;20390;-86
2023/11/18 04:33:49;;;;;;;0.03;0.03;;;;;;;5.43;59.48;99852.44;5303501;27;20413;-85
2023/11/18 04:36:16;;;;;;;0.00;0.00;;;;;;;5.50;59.48;99848.09;5302831;27;20365;-86
2023/11/18 04:38:42;;;;;;;0.00;0.00;;;;;;;5.41;59.47;99854.19;5285500;27;20644;-86
2023/11/18 04:41:07;;;;;;;0.00;0.00;;;;;;;5.54;59.49;99850.63;5284928;27;20056;-87
2023/11/18 04:43:32;;;;;;;0.13;0.13;;;;;;;5.52;59.48;99851.50;5302536;27;29146;-87
2023/11/18 04:45:59;;;;;;;2.05;1.42;;;;;;;5.48;59.48;99868.78;5303303;27;20044;-85
2023/11/18 04:48:24;;;;;;;0.10;0.10;;;;;;;5.61;59.48;99871.22;5302722;27;20104;-84
2023/11/18 04:50:50;;;;;;;0.00;0.00;;;;;;;5.48;59.48;99866.19;5284392;27;20080;-86
2023/11/18 04:53:15;;;;;;;0.00;0.00;;;;;;;5.56;59.48;99860.94;5302735;27;20398;-86
2023/11/18 04:55:40;;;;;;;0.28;0.28;;;;;;;5.55;59.49;99860.09;5284769;27;20057;-86
2023/11/18 04:58:06;;;;;;;0.08;0.08;;;;;;;5.61;59.48;99855.72;5302770;27;20055;-85
2023/11/18 05:00:38;;;;;;;0.00;0.00;;;;;;;5.50;59.48;99861.88;5284432;27;20071;-86
2023/11/18 05:03:05;;;;;;;0.00;0.00;;;;;;;5.45;59.48;99855.03;5304136;27;20057;-86
2023/11/18 05:05:30;;;;;;;0.00;0.00;;;;;;;5.40;59.48;99859.38;5304309;27;20066;-86
2023/11/18 05:07:56;;;;;;;0.20;0.20;;;;;;;5.24;59.46;99871.56;5285847;27;20049;-85
2023/11/18 05:10:21;;;;;;;0.00;0.00;;;;;;;5.28;59.47;99878.41;5303661;27;20057;-85
2023/11/18 05:12:55;;;;;;;0.00;0.00;;;;;;;5.31;59.48;99883.53;5284637;27;29719;-86
2023/11/18 05:15:24;;;;;;;1.08;0.98;;;;;;;5.37;59.47;99869.72;5287406;27;20044;-86
2023/11/18 05:17:50;;;;;;;0.00;0.00;;;;;;;5.30;59.47;99880.97;5286779;27;20041;-85
2023/11/18 05:20:16;;;;;;;0.17;0.17;;;;;;;5.28;59.46;99886.16;5285787;27;20112;-85
2023/11/18 05:22:41;;;;;;;0.00;0.00;;;;;;;5.29;59.47;99899.91;5284245;27;27182;-86
2023/11/18 05:25:07;;;;;;;0.03;0.03;;;;;;;5.36;59.47;99894.69;5302970;27;32767;-87
2023/11/18 05:27:33;;;;;;;0.05;0.05;;;;;;;5.39;59.48;99901.53;5285862;27;20045;-86
2023/11/18 05:29:59;;;;;;;0.10;0.10;;;;;;;5.37;59.47;99890.38;5304014;26;38108;-87
2023/11/18 05:32:27;;;;;;;0.43;0.43;;;;;;;5.42;59.48;99893.75;5307707;26;20440;-86
2023/11/18 05:34:53;;;;;;;0.50;0.35;;;;;;;5.42;59.48;99893.75;5307015;26;20109;-85
2023/11/18 05:37:20;;;;;;;0.13;0.10;;;;;;;5.39;59.48;99906.69;5307216;26;20037;-85
2023/11/18 05:39:45;;;;;;;0.13;0.13;;;;;;;5.50;59.48;99912.66;5307511;26;20492;-85
2023/11/18 05:42:11;;;;;;;0.10;0.10;;;;;;;5.52;59.48;99898.00;5325944;26;20056;-86
2023/11/18 05:44:39;;;;;;;0.65;0.65;;;;;;;5.35;59.47;99900.72;5307761;26;20048;-87
2023/11/18 05:47:07;;;;;;;0.00;0.00;;;;;;;5.30;59.47;99910.22;5290043;26;20045;-85
2023/11/18 05:49:34;;;;;;;0.37;0.37;;;;;;;5.26;59.47;99899.94;5326105;26;20056;-86
2023/11/18 05:51:59;;;;;;;0.00;0.00;;;;;;;5.40;59.48;99904.09;5307009;26;20056;-85
2023/11/18 05:54:25;;;;;;;0.00;0.00;;;;;;;5.42;59.47;99914.41;5324428;26;23571;-86
2023/11/18 05:56:51;;;;;;;0.20;0.20;;;;;;;5.40;59.48;99918.72;5325640;26;20449;-86
2023/11/18 05:59:16;;;;;;;0.00;0.00;;;;;;;5.37;59.47;99919.63;5325378;26;20068;-85
2023/11/18 06:01:41;;;;;;;0.00;0.00;;;;;;;5.53;59.49;99918.63;5306675;26;20072;-86
2023/11/18 06:04:08;;;;;;;0.20;0.20;;;;;;;5.42;59.48;99922.16;5307742;26;20076;-86
2023/11/18 06:06:33;;;;;;;1.12;0.35;;;;;;;5.37;59.47;99926.50;5326310;26;20052;-86
2023/11/18 06:09:04;;;;;;;0.00;0.00;;;;;;;5.40;59.48;99931.63;5307222;26;20450;-87
2023/11/18 06:11:31;;;;;;;0.00;0.00;;;;;;;5.31;59.48;99930.00;5326528;26;20048;-86
2023/11/18 06:13:57;;;;;;;0.00;0.00;;;;;;;5.30;59.47;99927.44;5325464;26;20060;-85
2023/11/18 06:16:24;;;;;;;0.10;0.10;;;;;;;5.29;59.47;99934.31;5307072;26;20048;-85
2023/11/18 06:18:53;;;;;;;0.00;0.00;;;;;;;5.27;59.47;99936.06;5307849;26;20076;-87
2023/11/18 06:21:20;;;;;;;0.47;0.47;;;;;;;5.29;59.47;99938.63;5306748;26;20087;-86
2023/11/18 06:23:47;;;;;;;0.08;0.08;;;;;;;5.21;59.46;99933.53;5289165;26;20102;-86
2023/11/18 06:26:12;;;;;;;0.00;0.00;;;;;;;5.17;59.47;99924.94;5289564;26;20108;-86
2023/11/18 06:28:42;;;;;;;1.60;0.93;;;;;;;5.22;59.46;99930.94;5307522;26;20061;-86
2023/11/18 06:31:08;;;;;;;0.22;0.22;;;;;;;5.24;59.46;99928.34;5289111;26;20064;-85
2023/11/18 06:33:42;;;;;;;0.40;0.40;;;;;;;5.21;59.46;99933.53;5307726;26;20067;-87
2023/11/18 06:36:09;;;;;;;0.00;0.00;;;;;;;5.32;59.47;99938.59;5326074;26;20071;-87
2023/11/18 06:38:34;;;;;;;0.10;0.10;;;;;;;5.24;59.46;99946.41;5307832;26;20048;-86
2023/11/18 06:41:02;;;;;;;0.00;0.00;;;;;;;5.31;59.46;99947.22;5307374;26;20078;-85
2023/11/18 06:43:35;;;;;;;0.00;0.00;;;;;;;5.23;59.46;99953.28;5308266;26;20052;-86
2023/11/18 06:46:01;;;;;;;0.00;0.00;;;;;;;5.30;59.47;99953.25;5327295;26;20097;-86
2023/11/18 06:48:27;;;;;;;0.00;0.00;;;;;;;5.28;59.47;99950.69;5308036;26;20307;-86
2023/11/18 06:50:52;;;;;;;0.00;0.00;;;;;;;5.45;59.48;99958.31;5325754;26;20056;-86
2023/11/18 06:53:17;;;;;;;0.10;0.10;;;;;;;5.53;59.47;99946.19;5306813;26;24551;-86
2023/11/18 06:55:43;;;;;;;1.55;0.45;;;;;;;5.40;59.48;99958.31;5306896;26;29752;-86
2023/11/18 06:58:09;;;;;;;0.00;0.00;;;;;;;5.30;59.46;99958.41;5325183;26;25638;-86
2023/11/18 07:00:36;;;;;;;2.10;0.95;;;;;;;5.38;59.47;99961.78;5326293;26;20056;-87
2023/11/18 07:03:02;;;;;;;3.42;0.80;;;;;;;5.36;59.47;99960.94;5307925;26;20063;-86
2023/11/18 07:05:28;;;;;;;0.00;0.00;;;;;;;5.48;59.48;99963.44;5307322;26;20107;-86
2023/11/18 07:07:54;;;;;;;0.13;0.13;;;;;;;5.59;59.49;99964.19;5307677;26;20073;-86
2023/11/18 07:10:20;;;;;;;0.20;0.20;;;;;;;5.50;59.48;99972.88;5325604;26;20049;-86
2023/11/18 07:12:47;;;;;;;0.60;0.60;;;;;;;5.52;59.48;99981.47;5326438;26;20049;-86
2023/11/18 07:15:13;;;;;;;0.32;0.32;;;;;;;5.68;59.50;99977.03;5289708;26;20062;-85
2023/11/18 07:17:39;;;;;;;0.00;0.00;;;;;;;5.71;59.50;99987.34;5288972;26;20483;-86
2023/11/18 07:20:05;;;;;;;0.47;0.20;;;;;;;5.70;59.49;99987.34;5306532;26;29564;-86
2023/11/18 07:22:31;;;;;;;0.13;0.13;;;;;;;5.92;59.51;99988.06;5289281;26;20103;-86
2023/11/18 07:24:57;;;;;;;0.00;0.00;;;;;;;6.17;59.51;99984.34;5306384;26;21938;-86
2023/11/18 07:27:22;;;;;;;0.00;0.00;;;;;;;6.27;59.52;99985.09;5306832;26;20075;-86
2023/11/18 07:29:48;;;;;;;0.13;0.13;;;;;;;6.40;59.53;99978.94;5325248;26;20442;-86
2023/11/18 07:32:13;;;;;;;0.00;0.00;;;;;;;6.20;59.53;99976.56;5306234;26;30690;-86
2023/11/18 07:34:40;;;;;;;0.47;0.47;;;;;;;6.23;59.53;99981.69;5325535;26;20389;-86
2023/11/18 07:37:08;;;;;;;1.00;0.50;;;;;;;6.21;59.52;99978.28;5307204;26;20315;-85
2023/11/18 07:39:43;;;;;;;0.00;0.00;;;;;;;6.29;59.53;99976.47;5307375;26;20076;-85
2023/11/18 07:42:11;;;;;;;0.00;0.00;;;;;;;6.16;59.52;99993.00;5327295;26;20068;-85
2023/11/18 07:44:38;;;;;;;0.00;0.00;;;;;;;6.08;59.51;99979.25;5289087;26;20069;-85
2023/11/18 07:47:05;;;;;;;0.00;0.00;;;;;;;6.04;59.51;99990.50;5289481;26;20127;-86
2023/11/18 07:49:31;;;;;;;0.00;0.00;;;;;;;6.13;59.52;99980.94;5325673;26;20111;-86
2023/11/18 07:51:56;;;;;;;0.00;0.00;;;;;;;6.27;59.52;99973.03;5306881;26;20053;-87
2023/11/18 07:54:23;;;;;;;0.03;0.03;;;;;;;6.45;59.54;99995.25;5325130;26;20053;-85
2023/11/18 07:56:49;;;;;;;0.00;0.00;;;;;;;6.44;59.53;99983.19;5325673;26;20103;-86
2023/11/18 07:59:15;;;;;;;0.13;0.13;;;;;;;6.58;59.55;100003.72;5325469;26;20057;-85
2023/11/18 08:01:46;;;;;;;0.00;0.00;;;;;;;6.55;59.54;100007.19;5307235;26;20067;-83
2023/11/18 08:04:13;;;;;;;0.17;0.17;;;;;;;6.43;59.54;100007.34;5288856;26;20146;-85
2023/11/18 08:06:43;;;;;;;0.00;0.00;;;;;;;6.58;59.55;100016.63;5325549;26;20025;-86
2023/11/18 08:09:12;;;;;;;0.00;0.00;;;;;;;6.77;59.55;100005.19;5307171;26;20396;-85
2023/11/18 08:11:39;;;;;;;0.03;0.03;;;;;;;6.99;59.57;100014.41;5308061;26;20100;-85
2023/11/18 08:14:04;;;;;;;0.00;0.00;;;;;;;6.86;59.56;100004.22;5325820;26;20090;-87
2023/11/18 08:16:29;;;;;;;0.00;0.00;;;;;;;6.79;59.55;99998.28;5325100;26;20433;-86
2023/11/18 08:18:55;;;;;;;0.10;0.10;;;;;;;6.77;59.55;99980.19;5325353;26;20104;-85
2023/11/18 08:21:21;;;;;;;0.20;0.10;;;;;;;6.68;59.55;100002.75;5325428;26;20049;-86
2023/11/18 08:23:47;;;;;;;0.00;0.00;;;;;;;6.58;59.55;100001.97;5307107;26;20041;-86
2023/11/18 08:26:13;;;;;;;0.30;0.30;;;;;;;6.49;59.53;100009.00;5325371;26;20405;-85
2023/11/18 08:28:38;;;;;;;0.00;0.00;;;;;;;6.68;59.55;100015.69;5306730;26;20417;-86
2023/11/18 08:31:06;;;;;;;0.00;0.00;;;;;;;6.82;59.56;100013.75;5305646;26;29774;-86
2023/11/18 08:33:31;;;;;;;0.00;0.00;;;;;;;6.98;59.57;100012.69;5325151;26;20045;-86
2023/11/18 08:35:57;;;;;;;0.00;0.00;;;;;;;6.99;59.57;100011.81;5306617;26;20067;-86
2023/11/18 08:38:22;;;;;;;0.03;0.03;;;;;;;6.87;59.55;100012.00;5324941;26;30887;-84
2023/11/18 08:40:48;;;;;;;0.10;0.10;;;;;;;6.97;59.57;100005.81;5306620;26;34037;-85
2023/11/18 08:43:16;;;;;;;0.52;0.32;;;;;;;6.96;59.57;99992.87;5325798;26;20396;-86
2023/11/18 08:45:41;;;;;;;0.00;0.00;;;;;;;7.03;59.57;99997.09;5307563;26;20056;-85
2023/11/18 08:48:07;;;;;;;1.35;0.85;;;;;;;6.96;59.57;99990.31;5306593;26;27826;-86
2023/11/18 08:50:33;;;;;;;0.00;0.00;;;;;;;7.11;59.58;100005.63;5307299;26;20318;-85
2023/11/18 08:52:58;;;;;;;0.00;0.00;;;;;;;6.93;59.56;100022.25;5307563;26;20036;-85
2023/11/18 08:56:13;;;;;;;0.25;0.25;;;;;;;6.97;59.56;100012.72;5306825;26;24556;-85
2023/11/18 08:58:19;;;;;;;0.10;0.10;;;;;;;7.16;59.57;100011.59;5298496;26;20735;-86
2023/11/18 09:00:47;;;;;;;0.10;0.10;;;;;;;7.21;59.58;99996.00;5327099;26;20348;-87
2023/11/18 09:03:17;;;;;;;0.00;0.00;;;;;;;7.16;59.57;99998.66;5289961;26;20093;-85
2023/11/18 09:05:58;;;;;;;0.10;0.10;;;;;;;7.21;59.58;100009.78;5289553;26;20110;-86
2023/11/18 09:08:27;;;;;;;0.25;0.20;;;;;;;7.27;59.58;99988.97;5308792;26;20052;-86
2023/11/18 09:10:53;;;;;;;0.13;0.13;;;;;;;7.28;59.58;99995.00;5325963;26;20390;-87
2023/11/18 09:13:29;;;;;;;0.00;0.00;;;;;;;7.26;59.58;100013.16;5289439;26;20106;-86
2023/11/18 09:16:00;;;;;;;0.55;0.55;;;;;;;7.28;59.58;100008.81;5290037;26;20048;-85
2023/11/18 09:18:27;;;;;;;0.05;0.05;;;;;;;7.37;59.58;99995.75;5307954;26;20158;-84
2023/11/18 09:20:54;;;;;;;0.00;0.00;;;;;;;7.33;59.58;100001.88;5307542;26;20058;-84
2023/11/18 09:23:20;;;;;;;0.00;0.00;;;;;;;7.31;59.58;99990.66;5307137;26;20045;-85
2023/11/18 09:25:49;;;;;;;0.28;0.20;;;;;;;7.50;59.60;100003.31;5306425;26;20052;-85
2023/11/18 09:28:15;;;;;;;3.40;0.90;;;;;;;7.61;59.61;99986.75;5325875;26;20078;-85
2023/11/18 09:30:54;;;;;;;0.00;0.00;;;;;;;7.73;59.60;99995.19;5306945;26;20402;-85
2023/11/18 09:33:25;;;;;;;0.00;0.00;;;;;;;7.54;59.59;99992.03;5327763;26;20064;-85
2023/11/18 09:35:55;;;;;;;0.00;0.00;;;;;;;7.60;59.60;100000.56;5290010;26;20465;-85
2023/11/18 09:38:21;;;;;;;;;;;;;;;7.79;59.61;100008.88;5289916;26;20085;-86
2023/11/18 09:40:47;;;;;;;0.00;0.00;;;;;;;7.64;59.60;100002.25;5306543;26;20343;-83
2023/11/18 09:43:15;;;;;;;0.00;0.00;;;;;;;7.63;59.60;100020.41;5306453;26;20668;-87
2023/11/18 09:45:41;;;;;;;0.60;0.20;;;;;;;7.73;59.61;100014.19;5326179;26;20474;-85
2023/11/18 09:48:09;;;;;;;2.58;0.55;;;;;;;7.76;59.61;100018.44;5307579;26;20086;-87
2023/11/18 09:50:37;;;;;;;0.10;0.10;;;;;;;7.75;59.60;100011.56;5307214;26;20139;-87
2023/11/18 09:53:05;;;;;;;0.00;0.00;;;;;;;7.98;59.62;100020.66;5326412;26;20101;-86
2023/11/18 09:55:59;;;;;;;0.00;0.00;;;;;;;8.01;59.63;100012.81;5307964;26;20060;-86
2023/11/18 09:58:25;;;;;;;0.00;0.00;;;;;;;7.97;59.61;100028.47;5310319;26;20061;-86
2023/11/18 10:00:51;;;;;;;0.00;0.00;;;;;;;8.01;59.62;100020.59;5307048;26;20312;-86
2023/11/18 10:03:16;;;;;;;2.17;0.15;;;;;;;8.22;59.63;100014.19;5307256;26;20440;-87
2023/11/18 10:05:42;;;;;;;0.00;0.00;;;;;;;8.38;59.65;100016.53;5306260;26;31809;-86
2023/11/18 10:08:07;;;;;;;0.00;0.00;;;;;;;8.31;59.64;100010.59;5306970;26;20402;-86
2023/11/18 10:10:36;;;;;;;0.00;0.00;;;;;;;8.38;59.65;100014.81;5307400;26;20057;-87
2023/11/18 10:13:04;;;;;;;0.52;0.52;;;;;;;8.32;59.64;99995.00;5307712;26;20071;-86
2023/11/18 10:15:31;;;;;;;0.00;0.00;;;;;;;8.31;59.64;100005.41;5307932;26;20483;-86
2023/11/18 10:18:00;;;;;;;0.00;0.00;;;;;;;8.17;59.63;100000.47;5325490;26;20078;-85
2023/11/18 10:20:59;;;;;;;0.35;0.35;;;;;;;8.09;59.63;99999.75;5308583;26;20073;-86
2023/11/18 10:23:27;;;;;;;0.93;0.93;;;;;;;8.11;59.63;99989.34;5308341;26;20418;-85
2023/11/18 10:25:53;;;;;;;0.30;0.15;;;;;;;8.24;59.63;99994.25;5307389;26;20227;-86
2023/11/18 10:28:36;;;;;;;0.00;0.00;;;;;;;8.07;59.63;99980.78;5289149;26;20060;-85
2023/11/18 10:31:05;;;;;;;0.10;0.10;;;;;;;8.06;59.62;99989.44;5326079;26;20068;-87
2023/11/18 10:33:38;;;;;;;0.07;0.07;;;;;;;8.01;59.63;99993.81;5325108;26;20412;-84
2023/11/18 10:36:04;;;;;;;0.62;0.20;;;;;;;7.97;59.61;99999.94;5306106;26;20406;-86
2023/11/18 10:38:30;;;;;;;0.00;0.00;;;;;;;7.87;59.62;100001.84;5288209;26;21000;-84
2023/11/18 10:40:57;;;;;;;0.00;0.00;;;;;;;7.95;59.62;99991.34;5288468;26;20056;-88
2023/11/18 10:43:28;;;;;;;0.00;0.00;;;;;;;8.05;59.62;100018.00;5306474;26;20076;-85
2023/11/18 10:46:16;;;;;;;2.20;0.55;;;;;;;8.08;59.63;99985.06;5307240;26;20122;-85
2023/11/18 10:48:47;;;;;;;0.10;0.10;;;;;;;8.14;59.63;100003.09;5289972;26;20072;-85
2023/11/18 10:51:14;;;;;;;0.00;0.00;;;;;;;8.34;59.64;99999.34;5288459;26;20067;-84
2023/11/18 10:53:58;;;;;;;0.00;0.00;;;;;;;8.36;59.64;99997.56;5307248;26;20389;-86
2023/11/18 10:56:26;;;;;;;0.00;0.00;;;;;;;8.28;59.63;100001.12;5311665;26;20080;-86
2023/11/18 10:58:53;;;;;;;0.00;0.00;;;;;;;8.21;59.63;100004.69;5307967;26;20078;-87
2023/11/18 11:01:31;;;;;;;0.00;0.00;;;;;;;8.22;59.64;99983.06;5289641;26;20052;-86
2023/11/18 11:03:57;;;;;;;0.00;0.00;;;;;;;8.08;59.63;99979.03;5308676;26;20044;-86
2023/11/18 11:06:30;;;;;;;0.20;0.20;;;;;;;8.36;59.63;99987.19;5307552;26;20079;-85
2023/11/18 11:08:58;;;;;;;0.00;0.00;;;;;;;8.40;59.65;99994.03;5308178;26;20064;-86
2023/11/18 11:11:25;;;;;;;0.00;0.00;;;;;;;8.20;59.63;99989.16;5307565;26;20100;-86
2023/11/18 11:13:57;;;;;;;0.00;0.00;;;;;;;8.13;59.62;100023.87;5307296;26;20630;-85
2023/11/18 11:16:26;;;;;;;0.00;0.00;;;;;;;8.43;59.64;100025.09;5307236;26;20061;-86
2023/11/18 11:18:53;;;;;;;0.00;0.00;;;;;;;8.55;59.65;100017.09;5289698;26;20075;-86
2023/11/18 11:21:22;;;;;;;1.10;0.70;;;;;;;8.46;59.65;100025.88;5307092;26;20056;-87
2023/11/18 11:23:53;;;;;;;0.10;0.10;;;;;;;8.64;59.66;100027.28;5307795;26;20109;-87
2023/11/18 11:26:42;;;;;;;0.28;0.28;;;;;;;8.71;59.66;100039.22;5325523;26;20065;-85
2023/11/18 11:29:28;;;;;;;3.70;2.25;;;;;;;8.73;59.66;100034.84;5325928;26;20068;-86
2023/11/18 11:32:38;;;;;;;0.00;0.00;;;;;;;8.90;59.67;100045.75;5325143;26;20056;-86
2023/11/18 11:35:08;;;;;;;0.00;0.00;;;;;;;8.83;59.67;100062.34;5344532;26;20044;-86
2023/11/18 11:37:34;;;;;;;0.00;0.00;;;;;;;8.70;59.66;100071.25;5289576;26;20060;-85
2023/11/18 11:40:03;;;;;;;0.00;0.00;;;;;;;8.81;59.66;100065.88;5325172;26;20081;-85
2023/11/18 11:42:29;;;;;;;0.00;0.00;;;;;;;8.66;59.67;100087.78;5307575;26;20091;-86